createdAt,value
2022-10-17T00:00:05.475Z,99439.69
2022-10-17T00:01:27.097Z,99441.54
2022-10-17T00:02:28.764Z,99441.64
2022-10-17T00:03:30.492Z,99442.57
2022-10-17T00:04:32.170Z,99438.54
2022-10-17T00:05:34.134Z,99437.02
2022-10-17T00:06:35.896Z,99441.04
2022-10-17T00:07:38.447Z,99438.34
2022-10-17T00:08:42.752Z,99441.14
2022-10-17T00:09:44.539Z,99439.89
2022-10-17T00:10:56.576Z,99444.13
2022-10-17T00:11:58.276Z,99443.15
2022-10-17T00:13:00.000Z,99444.57
2022-10-17T00:14:01.876Z,99449.36
2022-10-17T00:15:05.999Z,99451.36
2022-10-17T00:16:08.361Z,99452.72
2022-10-17T00:17:10.223Z,99455.50
2022-10-17T00:18:11.906Z,99458.00
2022-10-17T00:19:13.541Z,99457.65
2022-10-17T00:20:16.471Z,99462.12
2022-10-17T00:21:19.747Z,99457.77
2022-10-17T00:22:21.685Z,99458.53
2022-10-17T00:23:24.085Z,99455.82
2022-10-17T00:24:25.805Z,99457.60
2022-10-17T00:25:27.639Z,99461.20
2022-10-17T00:26:29.795Z,99458.26
2022-10-17T00:27:36.049Z,99457.82
2022-10-17T00:28:37.785Z,99461.23
2022-10-17T00:29:39.514Z,99463.95
2022-10-17T00:30:41.952Z,99467.70
2022-10-17T00:31:43.719Z,99468.52
2022-10-17T00:32:45.489Z,99470.46
2022-10-17T00:33:47.996Z,99470.89
2022-10-17T00:34:50.364Z,99469.26
2022-10-17T00:36:07.120Z,99473.55
2022-10-17T00:37:10.795Z,99471.71
2022-10-17T00:38:12.550Z,99467.09
2022-10-17T00:39:14.264Z,99461.77
2022-10-17T00:40:16.000Z,99458.23
2022-10-17T00:41:20.346Z,99455.34
2022-10-17T00:42:22.256Z,99452.46
2022-10-17T00:43:24.020Z,99448.70
2022-10-17T00:44:31.632Z,99451.05
2022-10-17T00:45:33.288Z,99452.14
2022-10-17T00:46:39.471Z,99457.42
2022-10-17T00:47:51.589Z,99458.08
2022-10-17T00:48:56.182Z,99456.73
2022-10-17T00:49:59.447Z,99454.94
2022-10-17T00:51:02.487Z,99452.34
2022-10-17T00:52:22.187Z,99449.63
2022-10-17T00:53:23.936Z,99449.95
2022-10-17T00:54:32.921Z,99451.55
2022-10-17T00:55:42.430Z,99448.34
2022-10-17T00:56:48.035Z,99449.82
2022-10-17T00:57:51.328Z,99443.94
2022-10-17T00:58:54.523Z,99446.29
2022-10-17T00:59:59.527Z,99445.52
2022-10-17T01:01:03.365Z,99446.08
2022-10-17T01:02:11.915Z,99443.27
2022-10-17T01:03:14.073Z,99446.48
2022-10-17T01:04:18.224Z,99443.54
2022-10-17T01:05:21.002Z,99443.98
2022-10-17T01:06:22.700Z,99440.13
2022-10-17T01:07:24.675Z,99443.60
2022-10-17T01:08:26.870Z,99445.02
2022-10-17T01:09:29.084Z,99445.02
2022-10-17T01:10:46.068Z,99444.59
2022-10-17T01:12:02.501Z,99445.14
2022-10-17T01:13:23.579Z,99443.02
2022-10-17T01:14:37.284Z,99439.77
2022-10-17T01:16:04.645Z,99441.02
2022-10-17T01:17:13.474Z,99438.79
2022-10-17T01:18:37.222Z,99443.23
2022-10-17T01:19:59.517Z,99442.33
2022-10-17T01:21:29.049Z,99444.55
2022-10-17T01:22:45.532Z,99444.71
2022-10-17T01:24:15.996Z,99445.69
2022-10-17T01:25:38.115Z,99457.76
2022-10-17T01:27:07.510Z,99457.38
2022-10-17T01:28:37.235Z,99452.55
2022-10-17T01:30:09.800Z,99454.67
2022-10-17T01:31:17.353Z,99451.91
2022-10-17T01:32:31.364Z,99449.41
2022-10-17T01:33:54.324Z,99447.30
2022-10-17T01:35:05.831Z,99446.74
2022-10-17T01:36:35.549Z,99443.27
2022-10-17T01:37:48.646Z,99445.09
2022-10-17T01:39:09.711Z,99445.15
2022-10-17T01:40:42.845Z,99448.57
2022-10-17T01:41:58.579Z,99446.29
2022-10-17T01:43:20.991Z,99441.73
2022-10-17T01:44:47.609Z,99445.20
2022-10-17T01:46:13.115Z,99443.41
2022-10-17T01:47:22.656Z,99438.90
2022-10-17T01:48:33.024Z,99440.27
2022-10-17T01:49:39.478Z,99441.02
2022-10-17T01:51:00.007Z,99443.79
2022-10-17T01:52:11.087Z,99447.59
2022-10-17T01:53:20.282Z,99447.33
2022-10-17T01:54:36.221Z,99450.68
2022-10-17T01:55:43.050Z,99454.92
2022-10-17T01:56:49.849Z,99458.99
2022-10-17T01:58:03.327Z,99461.44
2022-10-17T01:59:13.681Z,99465.90
2022-10-17T02:00:21.303Z,99468.38
2022-10-17T02:01:30.083Z,99475.38
2022-10-17T02:02:37.371Z,99472.72
2022-10-17T02:03:43.950Z,99476.63
2022-10-17T02:04:51.488Z,99474.62
2022-10-17T02:05:53.342Z,99477.98
2022-10-17T02:06:55.743Z,99473.47
2022-10-17T02:07:57.692Z,99476.24
2022-10-17T02:08:59.497Z,99473.53
2022-10-17T02:10:02.795Z,99476.14
2022-10-17T02:11:14.392Z,99475.65
2022-10-17T02:12:27.984Z,99474.61
2022-10-17T02:13:54.299Z,99474.99
2022-10-17T02:15:17.752Z,99473.31
2022-10-17T02:16:38.771Z,99471.24
2022-10-17T02:17:54.954Z,99469.35
2022-10-17T02:19:13.784Z,99467.98
2022-10-17T02:20:41.256Z,99469.50
2022-10-17T02:22:11.433Z,99466.36
2022-10-17T02:23:42.213Z,99463.59
2022-10-17T02:25:01.983Z,99461.25
2022-10-17T02:26:19.546Z,99462.23
2022-10-17T02:27:47.986Z,99457.83
2022-10-17T02:29:09.995Z,99457.66
2022-10-17T02:30:19.113Z,99456.45
2022-10-17T02:31:29.549Z,99461.02
2022-10-17T02:32:50.453Z,99462.59
2022-10-17T02:34:08.037Z,99462.86
2022-10-17T02:35:15.475Z,99464.54
2022-10-17T02:36:26.436Z,99469.10
2022-10-17T02:37:31.696Z,99468.05
2022-10-17T02:38:35.798Z,99469.15
2022-10-17T02:39:41.096Z,99467.63
2022-10-17T02:40:46.458Z,99468.10
2022-10-17T02:41:52.590Z,99472.13
2022-10-17T02:42:55.726Z,99470.77
2022-10-17T02:44:00.210Z,99471.75
2022-10-17T02:45:06.685Z,99468.80
2022-10-17T02:46:09.524Z,99469.84
2022-10-17T02:47:17.822Z,99472.92
2022-10-17T02:48:35.654Z,99470.92
2022-10-17T02:49:43.866Z,99477.05
2022-10-17T02:51:14.944Z,99479.38
2022-10-17T02:52:33.081Z,99477.27
2022-10-17T02:53:45.390Z,99482.97
2022-10-17T02:54:56.098Z,99479.92
2022-10-17T02:56:08.907Z,99486.65
2022-10-17T02:57:31.320Z,99488.07
2022-10-17T02:58:36.373Z,99482.64
2022-10-17T02:59:41.875Z,99485.09
2022-10-17T03:00:44.269Z,99485.79
2022-10-17T03:01:46.648Z,99489.86
2022-10-17T03:02:51.557Z,99490.84
2022-10-17T03:04:05.524Z,99493.66
2022-10-17T03:05:08.405Z,99497.46
2022-10-17T03:06:10.473Z,99499.48
2022-10-17T03:07:12.615Z,99504.14
2022-10-17T03:08:14.337Z,99507.34
2022-10-17T03:09:16.602Z,99510.01
2022-10-17T03:10:19.655Z,99506.05
2022-10-17T03:11:22.314Z,99512.28
2022-10-17T03:12:25.215Z,99510.82
2022-10-17T03:13:27.536Z,99513.16
2022-10-17T03:14:29.338Z,99511.80
2022-10-17T03:15:31.060Z,99516.52
2022-10-17T03:16:34.113Z,99514.24
2022-10-17T03:17:36.923Z,99516.67
2022-10-17T03:18:38.633Z,99513.64
2022-10-17T03:19:40.469Z,99518.09
2022-10-17T03:20:42.216Z,99518.35
2022-10-17T03:21:43.903Z,99518.14
2022-10-17T03:22:46.647Z,99519.83
2022-10-17T03:23:48.348Z,99522.54
2022-10-17T03:24:50.453Z,99523.08
2022-10-17T03:25:52.224Z,99519.00
2022-10-17T03:26:54.062Z,99523.84
2022-10-17T03:27:59.645Z,99519.27
2022-10-17T03:29:01.619Z,99518.08
2022-10-17T03:30:04.219Z,99521.27
2022-10-17T03:31:09.231Z,99522.32
2022-10-17T03:32:11.399Z,99515.73
2022-10-17T03:33:13.165Z,99514.65
2022-10-17T03:34:17.669Z,99513.14
2022-10-17T03:35:19.932Z,99512.15
2022-10-17T03:36:23.251Z,99507.21
2022-10-17T03:37:25.071Z,99506.06
2022-10-17T03:38:26.725Z,99508.73
2022-10-17T03:39:28.467Z,99503.52
2022-10-17T03:40:30.148Z,99507.65
2022-10-17T03:41:31.774Z,99504.38
2022-10-17T03:42:33.481Z,99503.84
2022-10-17T03:43:36.806Z,99506.05
2022-10-17T03:44:38.511Z,99504.38
2022-10-17T03:45:40.252Z,99506.10
2022-10-17T03:46:42.156Z,99507.52
2022-10-17T03:47:43.893Z,99510.43
2022-10-17T03:48:45.529Z,99510.11
2022-10-17T03:49:47.212Z,99512.17
2022-10-17T03:50:49.712Z,99513.36
2022-10-17T03:51:51.667Z,99519.11
2022-10-17T03:52:56.264Z,99519.54
2022-10-17T03:53:58.029Z,99519.59
2022-10-17T03:54:59.724Z,99519.86
2022-10-17T03:56:10.599Z,99524.09
2022-10-17T03:57:12.279Z,99519.31
2022-10-17T03:58:14.471Z,99517.14
2022-10-17T03:59:16.650Z,99512.48
2022-10-17T04:00:23.588Z,99502.65
2022-10-17T04:01:28.741Z,99500.71
2022-10-17T04:02:30.532Z,99503.95
2022-10-17T04:03:32.653Z,99504.60
2022-10-17T04:04:34.320Z,99503.36
2022-10-17T04:05:36.381Z,99510.23
2022-10-17T04:06:38.591Z,99517.39
2022-10-17T04:07:40.248Z,99522.80
2022-10-17T04:08:42.813Z,99521.92
2022-10-17T04:09:50.725Z,99528.35
2022-10-17T04:11:01.186Z,99530.30
2022-10-17T04:12:03.105Z,99531.16
2022-10-17T04:13:06.441Z,99529.11
2022-10-17T04:14:10.444Z,99533.23
2022-10-17T04:15:12.977Z,99536.54
2022-10-17T04:16:17.165Z,99537.82
2022-10-17T04:17:40.260Z,99540.52
2022-10-17T04:18:43.845Z,99538.52
2022-10-17T04:19:45.664Z,99537.98
2022-10-17T04:20:49.046Z,99534.71
2022-10-17T04:21:50.936Z,99536.56
2022-10-17T04:22:54.026Z,99531.73
2022-10-17T04:23:58.280Z,99532.64
2022-10-17T04:25:17.173Z,99532.96
2022-10-17T04:26:22.358Z,99531.61
2022-10-17T04:27:24.047Z,99532.96
2022-10-17T04:28:27.415Z,99535.45
2022-10-17T04:29:29.212Z,99537.35
2022-10-17T04:30:42.328Z,99540.54
2022-10-17T04:31:47.514Z,99539.23
2022-10-17T04:32:55.513Z,99540.06
2022-10-17T04:33:57.370Z,99538.86
2022-10-17T04:34:59.612Z,99538.42
2022-10-17T04:36:04.301Z,99540.42
2022-10-17T04:37:06.310Z,99540.79
2022-10-17T04:38:08.230Z,99545.41
2022-10-17T04:39:10.246Z,99545.02
2022-10-17T04:40:13.228Z,99545.13
2022-10-17T04:41:18.097Z,99546.80
2022-10-17T04:42:19.807Z,99551.09
2022-10-17T04:43:21.764Z,99552.48
2022-10-17T04:44:24.401Z,99551.25
2022-10-17T04:45:27.162Z,99551.69
2022-10-17T04:46:34.158Z,99547.73
2022-10-17T04:47:36.042Z,99546.81
2022-10-17T04:48:39.586Z,99549.32
2022-10-17T04:51:00.491Z,99545.69
2022-10-17T04:52:16.105Z,99541.77
2022-10-17T04:53:19.594Z,99541.60
2022-10-17T04:54:21.387Z,99539.06
2022-10-17T04:55:27.268Z,99533.31
2022-10-17T04:56:29.028Z,99531.80
2022-10-17T04:57:30.728Z,99533.80
2022-10-17T04:58:40.790Z,99533.31
2022-10-17T04:59:42.913Z,99529.34
2022-10-17T05:00:53.407Z,99527.67
2022-10-17T05:01:57.976Z,99527.02
2022-10-17T05:02:59.857Z,99521.61
2022-10-17T05:04:01.954Z,99525.73
2022-10-17T05:05:04.480Z,99522.70
2022-10-17T05:06:09.294Z,99525.02
2022-10-17T05:07:11.883Z,99525.13
2022-10-17T05:08:35.217Z,99525.05
2022-10-17T05:09:37.189Z,99525.54
2022-10-17T05:10:41.795Z,99530.51
2022-10-17T05:11:43.899Z,99528.69
2022-10-17T05:12:47.624Z,99528.96
2022-10-17T05:13:55.757Z,99529.83
2022-10-17T05:14:57.494Z,99529.44
2022-10-17T05:16:01.761Z,99531.43
2022-10-17T05:17:03.479Z,99531.75
2022-10-17T05:18:06.279Z,99531.30
2022-10-17T05:19:07.975Z,99534.48
2022-10-17T05:20:14.390Z,99540.34
2022-10-17T05:21:16.212Z,99544.08
2022-10-17T05:22:17.913Z,99549.31
2022-10-17T05:23:19.792Z,99551.48
2022-10-17T05:24:21.779Z,99555.00
2022-10-17T05:25:24.367Z,99554.02
2022-10-17T05:26:26.843Z,99556.23
2022-10-17T05:27:29.119Z,99556.84
2022-10-17T05:28:30.850Z,99554.52
2022-10-17T05:29:34.601Z,99556.53
2022-10-17T05:30:44.785Z,99560.77
2022-10-17T05:31:46.537Z,99560.65
2022-10-17T05:32:48.418Z,99563.81
2022-10-17T05:33:50.139Z,99564.70
2022-10-17T05:34:52.902Z,99565.90
2022-10-17T05:35:54.969Z,99573.51
2022-10-17T05:36:57.672Z,99576.54
2022-10-17T05:38:00.583Z,99574.81
2022-10-17T05:39:03.096Z,99580.52
2022-10-17T05:40:05.549Z,99579.50
2022-10-17T05:41:07.287Z,99583.52
2022-10-17T05:42:09.061Z,99583.56
2022-10-17T05:43:10.934Z,99585.70
2022-10-17T05:44:13.482Z,99591.07
2022-10-17T05:45:17.486Z,99591.44
2022-10-17T05:46:19.217Z,99595.99
2022-10-17T05:47:20.972Z,99594.44
2022-10-17T05:48:24.086Z,99594.71
2022-10-17T05:49:33.242Z,99591.91
2022-10-17T05:50:46.283Z,99596.26
2022-10-17T05:51:50.579Z,99596.58
2022-10-17T05:52:54.363Z,99596.32
2022-10-17T05:53:56.992Z,99597.95
2022-10-17T05:55:00.930Z,99596.66
2022-10-17T05:56:06.107Z,99598.58
2022-10-17T05:57:07.940Z,99598.68
2022-10-17T05:58:17.717Z,99601.61
2022-10-17T05:59:26.591Z,99600.16
2022-10-17T06:00:32.845Z,99600.29
2022-10-17T06:01:34.656Z,99604.59
2022-10-17T06:02:37.188Z,99600.65
2022-10-17T06:03:40.854Z,99601.14
2022-10-17T06:04:45.915Z,99603.39
2022-10-17T06:05:48.476Z,99599.33
2022-10-17T06:06:50.469Z,99600.05
2022-10-17T06:07:55.985Z,99602.27
2022-10-17T06:09:00.005Z,99599.36
2022-10-17T06:10:06.735Z,99596.88
2022-10-17T06:11:10.228Z,99597.33
2022-10-17T06:12:12.543Z,99591.85
2022-10-17T06:13:14.265Z,99590.89
2022-10-17T06:14:16.164Z,99588.94
2022-10-17T06:15:18.367Z,99588.30
2022-10-17T06:16:24.590Z,99588.30
2022-10-17T06:17:26.340Z,99587.94
2022-10-17T06:18:28.094Z,99590.34
2022-10-17T06:19:30.095Z,99592.45
2022-10-17T06:20:31.821Z,99594.91
2022-10-17T06:21:36.508Z,99598.49
2022-10-17T06:22:43.871Z,99596.13
2022-10-17T06:23:50.942Z,99594.84
2022-10-17T06:24:59.981Z,99599.48
2022-10-17T06:26:05.190Z,99601.55
2022-10-17T06:27:11.029Z,99604.98
2022-10-17T06:28:14.556Z,99606.35
2022-10-17T06:29:16.406Z,99615.31
2022-10-17T06:30:21.908Z,99616.35
2022-10-17T06:31:24.080Z,99616.13
2022-10-17T06:32:25.808Z,99615.09
2022-10-17T06:33:27.551Z,99619.02
2022-10-17T06:34:29.434Z,99615.44
2022-10-17T06:35:31.511Z,99620.11
2022-10-17T06:36:33.238Z,99619.80
2022-10-17T06:37:37.125Z,99616.86
2022-10-17T06:38:42.918Z,99618.77
2022-10-17T06:39:52.730Z,99618.40
2022-10-17T06:41:07.855Z,99617.92
2022-10-17T06:42:09.536Z,99617.74
2022-10-17T06:43:20.687Z,99614.66
2022-10-17T06:44:52.881Z,99620.27
2022-10-17T06:47:14.302Z,99616.91
2022-10-17T06:48:18.728Z,99621.81
2022-10-17T06:49:38.857Z,99625.55
2022-10-17T06:50:53.006Z,99630.73
2022-10-17T06:52:00.555Z,99633.02
2022-10-17T06:53:14.627Z,99639.97
2022-10-17T06:54:57.392Z,99648.79
2022-10-17T06:56:09.406Z,99654.12
2022-10-17T06:57:14.412Z,99652.48
2022-10-17T06:58:32.144Z,99654.50
2022-10-17T06:59:42.808Z,99656.24
2022-10-17T07:00:47.851Z,99655.31
2022-10-17T07:01:49.603Z,99654.40
2022-10-17T07:02:51.433Z,99649.77
2022-10-17T07:03:53.426Z,99654.77
2022-10-17T07:04:56.572Z,99656.20
2022-10-17T07:05:58.785Z,99652.65
2022-10-17T07:07:03.071Z,99655.48
2022-10-17T07:08:05.953Z,99655.53
2022-10-17T07:09:08.195Z,99654.94
2022-10-17T07:10:12.168Z,99655.11
2022-10-17T07:11:18.219Z,99658.73
2022-10-17T07:12:19.952Z,99655.09
2022-10-17T07:13:22.778Z,99654.27
2022-10-17T07:14:31.995Z,99654.55
2022-10-17T07:15:36.807Z,99652.48
2022-10-17T07:16:38.549Z,99652.96
2022-10-17T07:17:52.879Z,99651.33
2022-10-17T07:18:54.873Z,99646.21
2022-10-17T07:19:56.760Z,99652.45
2022-10-17T07:20:58.715Z,99646.31
2022-10-17T07:22:00.548Z,99650.16
2022-10-17T07:23:02.475Z,99652.52
2022-10-17T07:24:05.859Z,99655.34
2022-10-17T07:25:08.889Z,99658.77
2022-10-17T07:26:20.792Z,99653.66
2022-10-17T07:27:22.779Z,99654.26
2022-10-17T07:28:24.496Z,99655.89
2022-10-17T07:29:27.619Z,99649.96
2022-10-17T07:30:35.780Z,99643.56
2022-10-17T07:31:45.563Z,99643.84
2022-10-17T07:32:47.485Z,99641.68
2022-10-17T07:33:49.958Z,99642.58
2022-10-17T07:34:51.719Z,99647.09
2022-10-17T07:35:53.461Z,99649.14
2022-10-17T07:36:55.104Z,99644.77
2022-10-17T07:37:56.800Z,99649.11
2022-10-17T07:38:58.460Z,99653.11
2022-10-17T07:40:00.952Z,99655.02
2022-10-17T07:41:04.893Z,99654.29
2022-10-17T07:42:07.859Z,99657.40
2022-10-17T07:43:09.923Z,99661.91
2022-10-17T07:44:12.068Z,99658.98
2022-10-17T07:45:20.291Z,99665.28
2022-10-17T07:46:22.633Z,99668.12
2022-10-17T07:47:24.813Z,99673.55
2022-10-17T07:48:27.399Z,99670.60
2022-10-17T07:49:30.199Z,99674.40
2022-10-17T07:50:33.123Z,99672.41
2022-10-17T07:51:34.841Z,99674.95
2022-10-17T07:52:36.762Z,99670.96
2022-10-17T07:53:41.707Z,99673.71
2022-10-17T07:54:44.776Z,99674.09
2022-10-17T07:55:47.852Z,99672.55
2022-10-17T07:56:50.745Z,99674.07
2022-10-17T07:57:52.893Z,99674.10
2022-10-17T07:58:54.607Z,99674.96
2022-10-17T07:59:56.659Z,99674.02
2022-10-17T08:01:09.503Z,99673.04
2022-10-17T08:02:22.994Z,99671.13
2022-10-17T08:03:24.634Z,99672.30
2022-10-17T08:04:27.054Z,99673.16
2022-10-17T08:05:29.418Z,99673.92
2022-10-17T08:06:31.124Z,99675.75
2022-10-17T08:07:32.852Z,99681.53
2022-10-17T08:08:34.551Z,99679.02
2022-10-17T08:09:36.174Z,99680.17
2022-10-17T08:10:37.795Z,99679.61
2022-10-17T08:11:39.600Z,99680.99
2022-10-17T08:12:41.878Z,99681.34
2022-10-17T08:13:45.084Z,99681.58
2022-10-17T08:14:48.208Z,99679.36
2022-10-17T08:15:49.905Z,99677.09
2022-10-17T08:16:54.596Z,99677.78
2022-10-17T08:17:56.423Z,99677.05
2022-10-17T08:18:58.176Z,99679.16
2022-10-17T08:19:59.843Z,99680.73
2022-10-17T08:21:06.186Z,99681.80
2022-10-17T08:22:08.883Z,99681.65
2022-10-17T08:23:11.222Z,99684.62
2022-10-17T08:24:12.935Z,99680.45
2022-10-17T08:25:14.707Z,99681.82
2022-10-17T08:26:17.599Z,99687.06
2022-10-17T08:27:24.128Z,99682.55
2022-10-17T08:28:25.783Z,99682.04
2022-10-17T08:29:28.774Z,99676.25
2022-10-17T08:30:30.795Z,99678.42
2022-10-17T08:31:32.458Z,99678.91
2022-10-17T08:32:34.100Z,99679.55
2022-10-17T08:33:35.772Z,99680.27
2022-10-17T08:34:37.458Z,99686.63
2022-10-17T08:35:39.076Z,99686.85
2022-10-17T08:36:40.944Z,99686.69
2022-10-17T08:37:42.719Z,99684.05
2022-10-17T08:38:47.975Z,99684.59
2022-10-17T08:39:53.411Z,99683.44
2022-10-17T08:41:00.372Z,99682.14
2022-10-17T08:42:30.981Z,99684.45
2022-10-17T08:44:08.429Z,99684.62
2022-10-17T08:45:35.295Z,99683.80
2022-10-17T08:46:43.934Z,99681.99
2022-10-17T08:47:49.685Z,99680.93
2022-10-17T08:48:52.544Z,99680.21
2022-10-17T08:50:02.177Z,99679.65
2022-10-17T08:51:33.318Z,99682.66
2022-10-17T08:52:54.057Z,99682.18
2022-10-17T08:54:14.579Z,99683.09
2022-10-17T08:55:42.816Z,99680.52
2022-10-17T08:56:51.614Z,99682.77
2022-10-17T08:57:53.318Z,99682.13
2022-10-17T08:58:55.096Z,99682.77
2022-10-17T08:59:57.149Z,99681.91
2022-10-17T09:01:20.522Z,99684.48
2022-10-17T09:02:54.377Z,99684.71
2022-10-17T09:04:07.659Z,99681.88
2022-10-17T09:05:44.236Z,99683.34
2022-10-17T09:06:48.727Z,99684.98
2022-10-17T09:08:02.864Z,99682.09
2022-10-17T09:09:26.077Z,99684.75
2022-10-17T09:10:39.869Z,99680.80
2022-10-17T09:12:02.707Z,99680.79
2022-10-17T09:13:40.155Z,99681.58
2022-10-17T09:15:00.173Z,99678.20
2022-10-17T09:16:37.279Z,99678.36
2022-10-17T09:17:41.903Z,99676.50
2022-10-17T09:18:51.380Z,99674.30
2022-10-17T09:20:06.122Z,99674.10
2022-10-17T09:21:44.795Z,99671.30
2022-10-17T09:24:15.881Z,99669.74
2022-10-17T09:25:21.039Z,99672.73
2022-10-17T09:26:24.744Z,99672.29
2022-10-17T09:27:38.627Z,99668.95
2022-10-17T09:28:42.498Z,99671.72
2022-10-17T09:29:50.427Z,99666.42
2022-10-17T09:31:03.448Z,99666.86
2022-10-17T09:32:17.452Z,99670.23
2022-10-17T09:33:42.545Z,99663.80
2022-10-17T09:34:54.885Z,99666.67
2022-10-17T09:35:59.303Z,99665.44
2022-10-17T09:37:03.197Z,99667.28
2022-10-17T09:38:05.404Z,99665.05
2022-10-17T09:39:15.245Z,99665.95
2022-10-17T09:40:25.085Z,99667.12
2022-10-17T09:41:46.389Z,99669.21
2022-10-17T09:42:51.453Z,99667.77
2022-10-17T09:43:58.240Z,99667.92
2022-10-17T09:45:19.413Z,99669.24
2022-10-17T09:46:31.659Z,99667.52
2022-10-17T09:49:11.192Z,99669.75
2022-10-17T09:50:27.990Z,99670.33
2022-10-17T09:51:31.700Z,99672.92
2022-10-17T09:52:54.201Z,99671.05
2022-10-17T09:54:36.493Z,99671.73
2022-10-17T09:55:49.436Z,99673.90
2022-10-17T09:56:58.998Z,99672.65
2022-10-17T09:58:04.112Z,99673.28
2022-10-17T09:59:08.372Z,99670.23
2022-10-17T10:00:25.651Z,99670.70
2022-10-17T10:01:31.568Z,99668.84
2022-10-17T10:02:36.429Z,99670.41
2022-10-17T10:03:38.068Z,99669.39
2022-10-17T10:05:05.658Z,99669.60
2022-10-17T10:06:20.258Z,99671.07
2022-10-17T10:07:28.280Z,99667.48
2022-10-17T10:08:37.121Z,99665.16
2022-10-17T10:09:40.212Z,99668.23
2022-10-17T10:10:43.787Z,99663.36
2022-10-17T10:11:51.883Z,99664.20
2022-10-17T10:13:25.720Z,99666.04
2022-10-17T10:14:34.321Z,99663.55
2022-10-17T10:15:41.014Z,99658.86
2022-10-17T10:16:47.008Z,99658.63
2022-10-17T10:17:48.908Z,99657.15
2022-10-17T10:18:51.798Z,99659.14
2022-10-17T10:19:54.348Z,99656.73
2022-10-17T10:21:17.167Z,99656.86
2022-10-17T10:22:21.941Z,99655.96
2022-10-17T10:23:24.302Z,99652.92
2022-10-17T10:24:30.902Z,99651.73
2022-10-17T10:25:35.059Z,99651.06
2022-10-17T10:26:48.797Z,99652.05
2022-10-17T10:27:50.468Z,99650.75
2022-10-17T10:29:06.139Z,99653.95
2022-10-17T10:30:19.405Z,99653.55
2022-10-17T10:31:29.304Z,99657.48
2022-10-17T10:32:36.862Z,99659.52
2022-10-17T10:33:46.941Z,99655.42
2022-10-17T10:35:00.394Z,99658.48
2022-10-17T10:36:06.373Z,99664.21
2022-10-17T10:37:25.461Z,99661.17
2022-10-17T10:38:28.569Z,99660.60
2022-10-17T10:39:36.189Z,99660.64
2022-10-17T10:40:55.603Z,99661.85
2022-10-17T10:41:57.794Z,99658.32
2022-10-17T10:43:05.366Z,99664.26
2022-10-17T10:44:17.105Z,99661.93
2022-10-17T10:45:43.219Z,99658.96
2022-10-17T10:46:45.520Z,99663.88
2022-10-17T10:47:53.435Z,99663.48
2022-10-17T10:48:59.703Z,99661.15
2022-10-17T10:50:26.061Z,99659.17
2022-10-17T10:51:35.715Z,99662.56
2022-10-17T10:52:46.198Z,99662.45
2022-10-17T10:53:53.697Z,99664.95
2022-10-17T10:55:14.465Z,99663.06
2022-10-17T10:56:34.181Z,99666.48
2022-10-17T10:57:38.500Z,99667.41
2022-10-17T10:58:52.792Z,99669.87
2022-10-17T11:00:12.468Z,99670.75
2022-10-17T11:01:25.442Z,99665.39
2022-10-17T11:02:52.922Z,99666.77
2022-10-17T11:04:32.111Z,99667.23
2022-10-17T11:05:45.574Z,99660.87
2022-10-17T11:06:52.658Z,99661.56
2022-10-17T11:08:13.995Z,99660.17
2022-10-17T11:09:41.213Z,99662.67
2022-10-17T11:11:18.157Z,99659.84
2022-10-17T11:12:36.269Z,99661.54
2022-10-17T11:13:47.790Z,99658.38
2022-10-17T11:15:17.057Z,99655.06
2022-10-17T11:16:31.193Z,99655.05
2022-10-17T11:17:45.834Z,99652.98
2022-10-17T11:19:09.273Z,99649.98
2022-10-17T11:20:44.922Z,99648.84
2022-10-17T11:22:01.429Z,99644.65
2022-10-17T11:23:19.909Z,99644.41
2022-10-17T11:24:27.986Z,99643.35
2022-10-17T11:25:37.210Z,99648.11
2022-10-17T11:26:46.757Z,99648.27
2022-10-17T11:27:48.858Z,99647.05
2022-10-17T11:28:50.603Z,99649.08
2022-10-17T11:29:52.385Z,99644.83
2022-10-17T11:30:56.735Z,99649.56
2022-10-17T11:32:08.213Z,99647.87
2022-10-17T11:33:20.365Z,99649.46
2022-10-17T11:34:35.469Z,99642.75
2022-10-17T11:35:43.992Z,99642.77
2022-10-17T11:36:52.746Z,99638.81
2022-10-17T11:38:03.457Z,99642.21
2022-10-17T11:39:27.657Z,99646.59
2022-10-17T11:40:39.122Z,99643.23
2022-10-17T11:41:55.228Z,99650.56
2022-10-17T11:43:01.765Z,99645.59
2022-10-17T11:44:35.878Z,99645.89
2022-10-17T11:45:46.468Z,99645.03
2022-10-17T11:46:56.346Z,99647.00
2022-10-17T11:48:10.546Z,99642.89
2022-10-17T11:49:24.192Z,99641.92
2022-10-17T11:52:43.976Z,99643.42
2022-10-17T11:53:55.023Z,99639.05
2022-10-17T11:55:03.821Z,99636.56
2022-10-17T11:56:06.540Z,99634.94
2022-10-17T11:57:27.180Z,99633.23
2022-10-17T11:58:39.726Z,99629.86
2022-10-17T12:00:21.840Z,99631.33
2022-10-17T12:01:49.762Z,99629.71
2022-10-17T12:03:19.006Z,99630.48
2022-10-17T12:04:54.840Z,99632.91
2022-10-17T12:06:18.219Z,99631.66
2022-10-17T12:07:59.965Z,99630.42
2022-10-17T12:09:10.268Z,99631.16
2022-10-17T12:10:27.143Z,99631.74
2022-10-17T12:11:54.143Z,99634.20
2022-10-17T12:12:55.974Z,99636.00
2022-10-17T12:13:57.804Z,99638.35
2022-10-17T12:15:23.301Z,99642.30
2022-10-17T12:16:24.956Z,99635.77
2022-10-17T12:17:35.692Z,99635.44
2022-10-17T12:18:37.857Z,99638.17
2022-10-17T12:19:39.607Z,99635.23
2022-10-17T12:20:41.358Z,99636.83
2022-10-17T12:22:04.874Z,99638.32
2022-10-17T12:23:24.790Z,99637.80
2022-10-17T12:24:44.997Z,99634.08
2022-10-17T12:26:01.571Z,99637.16
2022-10-17T12:27:30.131Z,99636.69
2022-10-17T12:28:37.790Z,99637.61
2022-10-17T12:29:39.501Z,99639.42
2022-10-17T12:31:09.825Z,99640.20
2022-10-17T12:32:13.018Z,99640.80
2022-10-17T12:33:40.597Z,99644.20
2022-10-17T12:34:53.982Z,99644.17
2022-10-17T12:36:17.167Z,99640.59
2022-10-17T12:37:55.161Z,99642.05
2022-10-17T12:39:01.607Z,99639.28
2022-10-17T12:40:03.968Z,99635.86
2022-10-17T12:41:06.509Z,99635.45
2022-10-17T12:42:29.839Z,99636.05
2022-10-17T12:43:31.713Z,99630.94
2022-10-17T12:44:34.983Z,99632.21
2022-10-17T12:45:54.108Z,99630.40
2022-10-17T12:47:11.167Z,99627.11
2022-10-17T12:48:14.139Z,99630.08
2022-10-17T12:49:40.348Z,99627.30
2022-10-17T12:52:35.042Z,99628.66
2022-10-17T12:54:15.731Z,99629.28
2022-10-17T12:55:19.814Z,99626.54
2022-10-17T12:56:50.561Z,99626.43
2022-10-17T12:58:00.007Z,99626.58
2022-10-17T12:59:22.352Z,99620.89
2022-10-17T13:00:30.952Z,99622.00
2022-10-17T13:01:37.586Z,99623.48
2022-10-17T13:02:41.263Z,99615.05
2022-10-17T13:03:47.666Z,99618.43
2022-10-17T13:04:53.636Z,99618.95
2022-10-17T13:06:02.950Z,99619.01
2022-10-17T13:07:04.650Z,99617.77
2022-10-17T13:08:14.808Z,99611.70
2022-10-17T13:09:36.941Z,99604.71
2022-10-17T13:10:43.037Z,99610.70
2022-10-17T13:11:45.724Z,99609.17
2022-10-17T13:12:50.688Z,99605.17
2022-10-17T13:13:59.096Z,99603.48
2022-10-17T13:15:07.362Z,99609.13
2022-10-17T13:16:09.728Z,99606.95
2022-10-17T13:17:27.378Z,99606.02
2022-10-17T13:18:30.471Z,99607.40
2022-10-17T13:19:43.120Z,99606.35
2022-10-17T13:21:00.550Z,99604.66
2022-10-17T13:22:07.045Z,99605.17
2022-10-17T13:23:23.071Z,99605.13
2022-10-17T13:24:30.529Z,99603.28
2022-10-17T13:25:33.255Z,99601.20
2022-10-17T13:26:37.222Z,99602.73
2022-10-17T13:27:38.818Z,99600.84
2022-10-17T13:28:41.593Z,99601.67
2022-10-17T13:29:45.001Z,99605.27
2022-10-17T13:30:49.456Z,99605.52
2022-10-17T13:31:58.897Z,99602.89
2022-10-17T13:33:02.330Z,99603.69
2022-10-17T13:34:14.999Z,99609.05